createdAt,value
2019-04-11T00:02:57.393Z,3.68
2019-04-11T00:06:01.407Z,3.74
2019-04-11T00:09:10.201Z,3.65
2019-04-11T00:12:14.526Z,3.71
2019-04-11T00:15:18.201Z,3.55
2019-04-11T00:18:22.782Z,3.54
2019-04-11T00:21:26.697Z,3.51
2019-04-11T00:24:31.363Z,3.49
2019-04-11T00:27:35.133Z,3.51
2019-04-11T00:30:39.909Z,3.48
2019-04-11T00:33:44.538Z,3.39
2019-04-11T00:36:48.502Z,3.39
2019-04-11T00:39:52.153Z,3.35
2019-04-11T00:42:56.115Z,3.23
2019-04-11T00:46:00.154Z,3.11
2019-04-11T00:49:06.208Z,3.10
2019-04-11T00:52:09.857Z,3.13
2019-04-11T00:55:13.432Z,3.15
2019-04-11T00:58:17.208Z,3.03
2019-04-11T01:01:21.684Z,3.11
2019-04-11T01:04:25.568Z,3.13
2019-04-11T01:07:29.167Z,2.95
2019-04-11T01:10:32.761Z,2.88
2019-04-11T01:13:44.368Z,2.84
2019-04-11T01:16:52.675Z,2.84
2019-04-11T01:19:57.260Z,2.87
2019-04-11T01:23:01.056Z,2.79
2019-04-11T01:26:05.298Z,2.67
2019-04-11T01:29:09.285Z,2.56
2019-04-11T01:32:13.876Z,2.59
2019-04-11T01:35:17.466Z,2.63
2019-04-11T01:38:22.743Z,2.51
2019-04-11T01:41:26.696Z,2.51
2019-04-11T01:44:30.478Z,2.51
2019-04-11T01:47:44.828Z,2.64
2019-04-11T01:50:50.774Z,2.54
2019-04-11T01:53:55.428Z,2.54
2019-04-11T01:56:59.239Z,2.38
2019-04-11T02:00:03.831Z,2.38
2019-04-11T02:03:09.352Z,2.25
2019-04-11T02:06:13.885Z,2.29
2019-04-11T02:09:17.598Z,2.21
2019-04-11T02:12:22.416Z,2.21
2019-04-11T02:15:28.156Z,2.18
2019-04-11T02:18:31.804Z,2.16
2019-04-11T02:21:35.958Z,2.16
2019-04-11T02:24:41.728Z,2.01
2019-04-11T02:27:46.290Z,1.98
2019-04-11T02:30:53.511Z,1.91
2019-04-11T02:33:57.305Z,1.89
2019-04-11T02:37:02.392Z,1.86
2019-04-11T02:40:11.037Z,1.86
2019-04-11T02:43:15.962Z,1.87
2019-04-11T02:46:32.281Z,1.79
2019-04-11T02:49:27.768Z,1.78
2019-04-11T02:52:31.460Z,1.75
2019-04-11T02:55:35.806Z,1.75
2019-04-11T02:58:40.256Z,1.75
2019-04-11T03:01:44.073Z,1.65
2019-04-11T03:04:48.249Z,1.65
2019-04-11T03:07:51.897Z,1.50
2019-04-11T03:10:56.139Z,1.53
2019-04-11T03:14:03.829Z,1.51
2019-04-11T03:17:16.391Z,1.45
2019-04-11T03:20:23.014Z,1.40
2019-04-11T03:23:20.648Z,1.35
2019-04-11T03:26:23.151Z,1.35
2019-04-11T03:29:28.841Z,1.36
2019-04-11T03:33:18.648Z,1.32
2019-04-11T03:39:05.681Z,1.25
2019-04-11T03:42:07.447Z,1.17
2019-04-11T03:45:15.287Z,1.16
2019-04-11T03:48:12.552Z,1.05
2019-04-11T03:51:05.928Z,1.03
2019-04-11T03:54:11.472Z,1.09
2019-04-11T03:57:17.260Z,1.02
2019-04-11T04:00:21.639Z,1.02
2019-04-11T04:03:27.269Z,0.97
2019-04-11T04:06:33.038Z,0.96
2019-04-11T04:09:37.403Z,1.03
2019-04-11T04:12:43.123Z,1.05
2019-04-11T04:16:00.151Z,0.99
2019-04-11T04:18:57.050Z,0.86
2019-04-11T04:22:10.997Z,0.88
2019-04-11T04:25:14.620Z,0.90
2019-04-11T04:28:19.110Z,0.88
2019-04-11T04:31:24.428Z,0.84
2019-04-11T04:34:28.567Z,0.91
2019-04-11T04:37:34.763Z,0.93
2019-04-11T04:40:50.929Z,0.88
2019-04-11T04:43:45.081Z,0.95
2019-04-11T04:47:00.167Z,1.05
2019-04-11T04:49:54.355Z,1.13
2019-04-11T04:52:58.652Z,1.33
2019-04-11T04:56:03.272Z,1.48
2019-04-11T04:59:07.590Z,1.53
2019-04-11T05:02:12.956Z,1.82
2019-04-11T05:05:17.859Z,2.07
2019-04-11T05:08:24.874Z,2.33
2019-04-11T05:11:28.563Z,3.10
2019-04-11T05:14:32.166Z,3.10
2019-04-11T05:17:36.279Z,2.79
2019-04-11T05:20:40.726Z,3.26
2019-04-11T05:23:44.256Z,3.90
2019-04-11T05:26:48.168Z,3.87
2019-04-11T05:29:53.548Z,4.07
2019-04-11T05:32:57.741Z,4.09
2019-04-11T05:36:01.426Z,3.61
2019-04-11T05:39:06.819Z,3.81
2019-04-11T05:42:11.255Z,3.88
2019-04-11T05:45:20.747Z,4.17
2019-04-11T05:48:41.028Z,4.06
2019-04-11T05:51:47.582Z,4.63
2019-04-11T05:54:52.832Z,4.09
2019-04-11T05:57:58.636Z,4.24
2019-04-11T06:01:12.654Z,4.57
2019-04-11T06:04:21.913Z,5.08
2019-04-11T06:07:29.442Z,4.85
2019-04-11T06:10:43.508Z,4.65
2019-04-11T06:13:50.981Z,5.01
2019-04-11T06:16:57.516Z,5.63
2019-04-11T06:20:12.601Z,5.81
2019-04-11T06:23:21.299Z,5.76
2019-04-11T06:26:32.396Z,5.06
2019-04-11T06:29:37.665Z,5.27
2019-04-11T06:32:56.285Z,5.64
2019-04-11T06:36:02.145Z,5.50
2019-04-11T06:39:27.514Z,6.25
2019-04-11T06:42:35.703Z,6.47
2019-04-11T06:45:57.039Z,7.49
2019-04-11T06:49:02.451Z,6.21
2019-04-11T06:52:10.773Z,7.12
2019-04-11T06:55:16.312Z,6.98
2019-04-11T06:58:21.599Z,7.28
2019-04-11T07:01:27.886Z,6.97
2019-04-11T07:04:42.406Z,7.80
2019-04-11T07:07:50.023Z,7.94
2019-04-11T07:10:55.301Z,7.20
2019-04-11T07:14:00.481Z,6.54
2019-04-11T07:17:22.958Z,6.90
2019-04-11T07:20:43.630Z,7.29
2019-04-11T07:24:05.381Z,8.27
2019-04-11T07:27:11.606Z,8.90
2019-04-11T07:30:25.178Z,8.96
2019-04-11T07:33:31.031Z,9.00
2019-04-11T07:36:53.634Z,8.85
2019-04-11T07:40:15.542Z,8.82
2019-04-11T07:43:19.573Z,7.77
2019-04-11T07:46:32.962Z,8.40
2019-04-11T07:49:44.968Z,8.59
2019-04-11T07:52:50.246Z,9.59
2019-04-11T07:55:55.425Z,10.38
2019-04-11T07:59:03.450Z,10.58
2019-04-11T08:02:08.842Z,9.79
2019-04-11T08:05:30.662Z,10.03
2019-04-11T08:08:41.537Z,9.49
2019-04-11T08:11:49.897Z,10.14
2019-04-11T08:14:55.111Z,9.80
2019-04-11T08:18:00.254Z,9.85
2019-04-11T08:21:21.944Z,9.31
2019-04-11T08:24:34.351Z,8.84
2019-04-11T08:28:00.715Z,8.98
2019-04-11T08:31:19.937Z,10.03
2019-04-11T08:34:24.357Z,10.45
2019-04-11T08:37:37.700Z,9.86
2019-04-11T08:40:43.069Z,9.98
2019-04-11T08:43:47.673Z,9.41
2019-04-11T08:46:53.934Z,9.04
2019-04-11T08:49:58.445Z,8.86
2019-04-11T08:53:18.702Z,10.08
2019-04-11T08:56:23.154Z,9.53
2019-04-11T08:59:45.829Z,9.83
2019-04-11T09:02:51.447Z,8.84
2019-04-11T09:05:57.936Z,8.30
2019-04-11T09:09:03.154Z,8.06
2019-04-11T09:12:08.547Z,9.41
2019-04-11T09:15:21.044Z,9.28
2019-04-11T09:18:25.936Z,8.94
2019-04-11T09:21:48.681Z,7.70
2019-04-11T09:24:56.961Z,7.83
2019-04-11T09:28:07.643Z,7.43
2019-04-11T09:31:25.496Z,6.99
2019-04-11T09:34:33.808Z,6.75
2019-04-11T09:37:37.885Z,6.87
2019-04-11T09:40:43.775Z,7.57
2019-04-11T09:43:48.378Z,7.23
2019-04-11T09:47:10.995Z,7.07
2019-04-11T09:50:16.544Z,6.93
2019-04-11T09:53:20.758Z,6.55
2019-04-11T09:56:43.018Z,6.56
2019-04-11T09:59:58.211Z,7.02
2019-04-11T10:03:03.542Z,7.02
2019-04-11T10:06:14.261Z,6.75
2019-04-11T10:09:17.864Z,7.18
2019-04-11T10:12:42.536Z,6.71
2019-04-11T10:16:07.426Z,7.09
2019-04-11T10:19:13.849Z,7.05
2019-04-11T10:22:32.107Z,6.71
2019-04-11T10:25:37.356Z,6.70
2019-04-11T10:28:48.064Z,6.69
2019-04-11T10:31:53.220Z,6.87
2019-04-11T10:35:14.264Z,7.27
2019-04-11T10:38:20.402Z,7.33
2019-04-11T10:41:32.570Z,7.25
2019-04-11T10:44:54.070Z,7.28
2019-04-11T10:47:57.810Z,7.50
2019-04-11T10:51:20.538Z,7.51
2019-04-11T10:54:25.954Z,7.86
2019-04-11T10:57:31.958Z,8.25
2019-04-11T11:00:37.612Z,7.43
2019-04-11T11:03:45.543Z,7.58
2019-04-11T11:06:51.721Z,7.50
2019-04-11T11:10:03.126Z,7.65
2019-04-11T11:13:25.607Z,7.53
2019-04-11T11:16:32.635Z,8.04
2019-04-11T11:20:07.782Z,8.04
2019-04-11T11:23:00.192Z,8.01
2019-04-11T11:26:05.363Z,7.83
2019-04-11T11:29:15.177Z,7.95
2019-04-11T11:32:16.775Z,9.11
2019-04-11T11:35:26.056Z,9.45
2019-04-11T11:38:28.769Z,9.30
2019-04-11T11:41:49.873Z,9.01
2019-04-11T11:45:04.214Z,7.89
2019-04-11T11:48:28.006Z,7.47
2019-04-11T11:51:37.361Z,7.53
2019-04-11T11:54:43.883Z,7.47
2019-04-11T11:57:53.033Z,7.41
2019-04-11T12:01:01.144Z,7.94
2019-04-11T12:04:24.156Z,7.69
2019-04-11T12:07:36.105Z,7.13
2019-04-11T12:10:45.880Z,7.42
2019-04-11T12:14:04.067Z,7.49
2019-04-11T12:17:29.311Z,7.28
2019-04-11T12:20:44.410Z,7.18
2019-04-11T12:24:03.733Z,7.85
2019-04-11T12:27:09.920Z,7.85
2019-04-11T12:30:15.762Z,7.97
2019-04-11T12:33:29.942Z,7.97
2019-04-11T12:36:35.130Z,8.00
2019-04-11T12:39:40.255Z,7.96
2019-04-11T12:42:46.025Z,7.80
2019-04-11T12:46:07.548Z,8.23
2019-04-11T12:49:27.764Z,8.20
2019-04-11T12:52:38.662Z,8.12
2019-04-11T12:55:43.854Z,8.24
2019-04-11T12:58:49.017Z,7.98
2019-04-11T13:02:12.716Z,8.09
2019-04-11T13:05:19.957Z,8.58
2019-04-11T13:08:41.428Z,8.40
2019-04-11T13:11:46.585Z,8.16
2019-04-11T13:14:51.741Z,7.90
2019-04-11T13:18:02.893Z,7.72
2019-04-11T13:21:10.440Z,7.66
2019-04-11T13:24:33.578Z,7.95
2019-04-11T13:27:38.742Z,7.73
2019-04-11T13:30:50.306Z,7.93
2019-04-11T13:33:55.468Z,8.28
2019-04-11T13:37:16.722Z,8.26
2019-04-11T13:40:31.833Z,7.87
2019-04-11T13:43:41.004Z,8.00
2019-04-11T13:46:49.081Z,7.43
2019-04-11T13:49:54.551Z,7.30
2019-04-11T13:53:16.046Z,7.69
2019-04-11T13:56:24.005Z,7.93
2019-04-11T13:59:35.387Z,7.53
2019-04-11T14:02:51.410Z,7.54
2019-04-11T14:05:51.928Z,7.57
2019-04-11T14:09:01.495Z,7.69
2019-04-11T14:12:09.115Z,7.77
2019-04-11T14:15:23.673Z,7.79
2019-04-11T14:18:28.826Z,7.82
2019-04-11T14:21:33.065Z,7.80
2019-04-11T14:24:42.406Z,7.88
2019-04-11T14:27:47.565Z,7.92
2019-04-11T14:30:52.762Z,7.80
2019-04-11T14:33:58.005Z,7.43
2019-04-11T14:37:09.200Z,7.40
2019-04-11T14:40:14.875Z,7.35
2019-04-11T14:43:22.872Z,7.09
2019-04-11T14:46:44.695Z,7.14
2019-04-11T14:49:49.871Z,7.46
2019-04-11T14:53:07.346Z,7.38
2019-04-11T14:56:22.199Z,7.59
2019-04-11T14:59:28.156Z,7.18
2019-04-11T15:02:49.232Z,7.10
2019-04-11T15:06:00.252Z,7.57
2019-04-11T15:09:10.148Z,7.51
2019-04-11T15:12:22.445Z,7.62
2019-04-11T15:15:36.682Z,7.68
2019-04-11T15:18:42.220Z,7.25
2019-04-11T15:21:53.537Z,7.41
2019-04-11T15:25:08.641Z,7.15
2019-04-11T15:28:13.854Z,7.09
2019-04-11T15:31:21.876Z,6.91
2019-04-11T15:34:29.552Z,7.07
2019-04-11T15:37:39.774Z,7.05
2019-04-11T15:40:44.172Z,7.13
2019-04-11T15:44:05.693Z,7.08
2019-04-11T15:47:19.537Z,7.05
2019-04-11T15:50:39.036Z,6.87
2019-04-11T15:53:51.279Z,6.75
2019-04-11T15:57:12.249Z,6.62
2019-04-11T16:00:22.217Z,6.74
2019-04-11T16:03:25.918Z,6.86
2019-04-11T16:06:34.758Z,6.77
2019-04-11T16:09:36.431Z,6.72
2019-04-11T16:12:53.266Z,6.63
2019-04-11T16:16:06.592Z,6.68
2019-04-11T16:19:22.271Z,6.62
2019-04-11T16:22:43.811Z,6.53
2019-04-11T16:25:49.022Z,6.61
2019-04-11T16:29:00.449Z,6.62
2019-04-11T16:32:09.113Z,6.46
2019-04-11T16:35:33.039Z,6.66
2019-04-11T16:38:37.439Z,6.73
2019-04-11T16:41:57.837Z,6.51
2019-04-11T16:45:12.236Z,6.59
2019-04-11T16:48:16.035Z,6.65
2019-04-11T16:51:30.376Z,6.55
2019-04-11T16:54:24.961Z,6.69
2019-04-11T16:57:28.569Z,6.60
2019-04-11T17:00:32.273Z,6.53
2019-04-11T17:03:35.845Z,6.52
2019-04-11T17:06:41.035Z,6.47
2019-04-11T17:09:51.841Z,6.57
2019-04-11T17:12:56.051Z,6.45
2019-04-11T17:16:01.281Z,6.38
2019-04-11T17:19:05.566Z,6.32
2019-04-11T17:22:09.987Z,6.29
2019-04-11T17:25:13.855Z,6.35
2019-04-11T17:28:17.489Z,6.30
2019-04-11T17:31:21.112Z,6.30
2019-04-11T17:34:24.688Z,6.34
2019-04-11T17:37:28.217Z,6.34
2019-04-11T17:40:31.801Z,6.33
2019-04-11T17:43:35.429Z,6.18
2019-04-11T17:46:38.979Z,6.17
2019-04-11T17:49:42.518Z,6.00
2019-04-11T17:52:46.126Z,5.96
2019-04-11T17:55:52.041Z,5.96
2019-04-11T17:58:57.692Z,6.10
2019-04-11T18:02:00.386Z,5.86
2019-04-11T18:05:05.030Z,5.85
2019-04-11T18:08:08.587Z,5.77
2019-04-11T18:11:12.248Z,5.74
2019-04-11T18:14:15.903Z,5.60
2019-04-11T18:17:19.433Z,5.57
2019-04-11T18:20:23.143Z,5.49
2019-04-11T18:23:26.822Z,5.50
2019-04-11T18:26:30.370Z,5.46
2019-04-11T18:29:33.899Z,5.53
2019-04-11T18:32:37.492Z,5.44
2019-04-11T18:35:41.089Z,5.46
2019-04-11T18:38:44.785Z,5.48
2019-04-11T18:41:48.399Z,5.54
2019-04-11T18:44:51.907Z,5.73
2019-04-11T18:47:55.606Z,5.51
2019-04-11T18:50:59.280Z,5.37
2019-04-11T18:54:03.010Z,5.39
2019-04-11T18:57:06.937Z,5.37
2019-04-11T19:00:13.452Z,5.48
2019-04-11T19:03:17.329Z,5.35
2019-04-11T19:06:27.769Z,5.34
2019-04-11T19:09:26.289Z,5.36
2019-04-11T19:12:29.995Z,5.24
2019-04-11T19:15:33.679Z,5.32
2019-04-11T19:18:37.244Z,5.25
2019-04-11T19:21:40.780Z,5.27
2019-04-11T19:24:44.469Z,5.20
2019-04-11T19:27:53.318Z,5.17
2019-04-11T19:30:53.923Z,5.29
2019-04-11T19:34:04.417Z,5.26
2019-04-11T19:37:11.785Z,5.11
2019-04-11T19:40:16.169Z,5.18
2019-04-11T19:43:19.662Z,5.02
2019-04-11T19:46:23.428Z,5.06
2019-04-11T19:49:28.988Z,5.10
2019-04-11T19:52:45.032Z,5.18
2019-04-11T19:55:52.243Z,5.09
2019-04-11T19:58:55.868Z,5.02
2019-04-11T20:01:59.421Z,5.07
2019-04-11T20:05:03.570Z,5.02
2019-04-11T20:08:07.227Z,4.98
2019-04-11T20:11:10.865Z,5.03
2019-04-11T20:14:14.439Z,5.10
2019-04-11T20:17:19.296Z,5.02
2019-04-11T20:20:23.459Z,4.98
2019-04-11T20:23:27.252Z,5.02
2019-04-11T20:26:30.995Z,4.95
2019-04-11T20:29:34.754Z,5.01
2019-04-11T20:32:38.340Z,5.01
2019-04-11T20:35:41.875Z,4.95
2019-04-11T20:38:45.631Z,4.90
2019-04-11T20:41:53.202Z,4.94
2019-04-11T20:44:58.240Z,4.98
2019-04-11T20:48:00.845Z,5.00
2019-04-11T20:51:04.514Z,5.07
2019-04-11T20:54:08.110Z,5.02
2019-04-11T20:57:12.067Z,4.96
2019-04-11T21:00:16.578Z,4.86
2019-04-11T21:03:20.134Z,4.88
2019-04-11T21:06:23.785Z,4.91
2019-04-11T21:09:27.338Z,4.88
2019-04-11T21:12:30.952Z,4.93
2019-04-11T21:15:34.508Z,4.98
2019-04-11T21:18:38.078Z,4.95
2019-04-11T21:21:41.700Z,4.87
2019-04-11T21:24:45.233Z,4.90
2019-04-11T21:27:48.871Z,4.97
2019-04-11T21:30:52.472Z,4.99
2019-04-11T21:33:56.067Z,4.88
2019-04-11T21:37:01.706Z,4.85
2019-04-11T21:40:07.109Z,4.84
2019-04-11T21:43:10.708Z,4.71
2019-04-11T21:46:14.302Z,4.71
2019-04-11T21:49:17.911Z,4.73
2019-04-11T21:52:21.417Z,4.72
2019-04-11T21:55:25.022Z,4.57
2019-04-11T21:58:28.622Z,4.67
2019-04-11T22:01:33.461Z,4.71
2019-04-11T22:04:37.017Z,4.76
2019-04-11T22:07:40.683Z,4.71
2019-04-11T22:10:44.321Z,4.73
2019-04-11T22:13:47.947Z,4.73
2019-04-11T22:16:51.554Z,4.80
2019-04-11T22:19:55.189Z,4.81
2019-04-11T22:22:58.717Z,4.71
2019-04-11T22:26:02.285Z,4.68
2019-04-11T22:29:05.974Z,4.70
2019-04-11T22:32:09.613Z,4.73
2019-04-11T22:35:13.228Z,4.78
2019-04-11T22:38:16.854Z,4.69
2019-04-11T22:41:20.440Z,4.76
2019-04-11T22:44:24.020Z,4.76
2019-04-11T22:47:27.599Z,4.68
2019-04-11T22:50:31.326Z,4.60
2019-04-11T22:53:35.035Z,4.66
2019-04-11T22:56:41.560Z,4.58
2019-04-11T22:59:44.921Z,4.51
2019-04-11T23:02:52.886Z,4.47
2019-04-11T23:05:58.012Z,4.46
2019-04-11T23:09:01.658Z,4.47
2019-04-11T23:12:05.392Z,4.43
2019-04-11T23:15:09.124Z,4.35
2019-04-11T23:18:14.048Z,4.35
2019-04-11T23:21:18.104Z,4.31
2019-04-11T23:24:21.743Z,4.26
2019-04-11T23:27:25.944Z,4.42
2019-04-11T23:30:29.752Z,4.34
2019-04-11T23:33:33.522Z,4.34
2019-04-11T23:36:37.086Z,4.38
2019-04-11T23:39:40.626Z,4.38
2019-04-11T23:42:44.177Z,4.39
2019-04-11T23:45:50.972Z,4.19
2019-04-11T23:48:55.562Z,4.13
2019-04-11T23:51:59.007Z,4.10
2019-04-11T23:55:02.590Z,4.14
2019-04-11T23:58:06.374Z,4.08
